createdAt,value
2022-08-02T00:00:42.304Z,98819.50
2022-08-02T00:03:08.432Z,98808.19
2022-08-02T00:05:34.588Z,98813.31
2022-08-02T00:08:00.716Z,98812.66
2022-08-02T00:10:26.845Z,98809.59
2022-08-02T00:12:53.216Z,98805.28
2022-08-02T00:15:19.480Z,98801.38
2022-08-02T00:17:47.287Z,98796.66
2022-08-02T00:20:14.827Z,98795.63
2022-08-02T00:22:40.957Z,98798.91
2022-08-02T00:25:07.104Z,98805.09
2022-08-02T00:27:33.303Z,98798.63
2022-08-02T00:29:59.436Z,98801.06
2022-08-02T00:32:25.571Z,98800.25
2022-08-02T00:34:51.715Z,98805.59
2022-08-02T00:37:17.833Z,98818.88
2022-08-02T00:39:43.981Z,98807.47
2022-08-02T00:42:11.161Z,98817.28
2022-08-02T00:44:37.572Z,98821.63
2022-08-02T00:47:03.706Z,98818.16
2022-08-02T00:49:29.945Z,98819.84
2022-08-02T00:51:56.130Z,98811.78
2022-08-02T00:54:22.279Z,98806.06
2022-08-02T00:56:49.765Z,98804.25
2022-08-02T00:59:17.240Z,98809.34
2022-08-02T01:01:55.930Z,98800.72
2022-08-02T01:04:29.717Z,98796.78
2022-08-02T01:06:57.828Z,98792.91
2022-08-02T01:09:23.968Z,98796.41
2022-08-02T01:11:50.116Z,98795.09
2022-08-02T01:14:16.280Z,98796.81
2022-08-02T01:16:42.413Z,98799.25
2022-08-02T01:19:08.558Z,98800.22
2022-08-02T01:21:42.274Z,98807.19
2022-08-02T01:24:08.403Z,98810.41
2022-08-02T01:26:34.568Z,98811.22
2022-08-02T01:29:00.712Z,98809.59
2022-08-02T01:31:26.842Z,98813.72
2022-08-02T01:33:53.265Z,98806.16
2022-08-02T01:36:19.393Z,98809.09
2022-08-02T01:38:45.530Z,98792.53
2022-08-02T01:41:11.665Z,98800.53
2022-08-02T01:43:37.810Z,98801.16
2022-08-02T01:46:03.946Z,98801.84
2022-08-02T01:48:30.080Z,98796.97
2022-08-02T01:50:56.246Z,98791.69
2022-08-02T01:53:22.383Z,98791.06
2022-08-02T01:55:58.460Z,98795.34
2022-08-02T01:58:25.150Z,98785.97
2022-08-02T02:00:51.376Z,98795.00
2022-08-02T02:03:17.604Z,98789.16
2022-08-02T02:05:43.771Z,98790.59
2022-08-02T02:08:09.927Z,98778.56
2022-08-02T02:10:36.068Z,98783.03
2022-08-02T02:13:02.193Z,98778.97
2022-08-02T02:15:28.323Z,98772.97
2022-08-02T02:18:12.585Z,98776.69
2022-08-02T02:20:39.966Z,98785.06
2022-08-02T02:23:06.105Z,98791.00
2022-08-02T02:25:35.623Z,98782.94
2022-08-02T02:28:03.073Z,98789.00
2022-08-02T02:30:29.217Z,98782.06
2022-08-02T02:32:55.354Z,98784.00
2022-08-02T02:35:21.809Z,98775.13
2022-08-02T02:37:47.951Z,98775.47
2022-08-02T02:40:14.080Z,98777.38
2022-08-02T02:42:41.197Z,98769.22
2022-08-02T02:45:07.528Z,98770.63
2022-08-02T02:47:40.806Z,98763.47
2022-08-02T02:50:07.849Z,98768.28
2022-08-02T02:52:33.995Z,98756.34
2022-08-02T02:55:00.136Z,98763.78
2022-08-02T02:57:26.277Z,98762.03
2022-08-02T02:59:52.414Z,98760.53
2022-08-02T03:02:18.536Z,98751.63
2022-08-02T03:04:55.461Z,98752.50
2022-08-02T03:07:23.745Z,98759.13
2022-08-02T03:09:54.268Z,98755.28
2022-08-02T03:12:21.021Z,98750.03
2022-08-02T03:14:49.397Z,98754.03
2022-08-02T03:17:15.773Z,98748.88
2022-08-02T03:19:41.928Z,98744.81
2022-08-02T03:22:08.140Z,98751.22
2022-08-02T03:24:34.456Z,98753.31
2022-08-02T03:27:00.584Z,98755.78
2022-08-02T03:29:26.723Z,98760.22
2022-08-02T03:31:53.226Z,98760.28
2022-08-02T03:34:19.355Z,98760.69
2022-08-02T03:36:45.484Z,98756.84
2022-08-02T03:39:11.634Z,98759.97
2022-08-02T03:41:37.769Z,98761.84
2022-08-02T03:44:03.893Z,98770.16
2022-08-02T03:46:30.081Z,98765.16
2022-08-02T03:48:56.293Z,98764.56
2022-08-02T03:51:22.469Z,98765.53
2022-08-02T03:53:48.614Z,98748.44
2022-08-02T03:56:14.770Z,98744.56
2022-08-02T03:58:42.777Z,98742.59
2022-08-02T04:01:10.839Z,98738.72
2022-08-02T04:03:37.065Z,98744.88
2022-08-02T04:06:04.254Z,98748.44
2022-08-02T04:08:34.897Z,98754.03
2022-08-02T04:11:03.609Z,98748.28
2022-08-02T04:13:31.889Z,98737.94
2022-08-02T04:16:02.152Z,98749.00
2022-08-02T04:18:28.286Z,98747.53
2022-08-02T04:20:54.423Z,98744.88
2022-08-02T04:23:20.582Z,98764.03
2022-08-02T04:25:48.010Z,98760.75
2022-08-02T04:28:18.358Z,98767.75
2022-08-02T04:30:44.733Z,98773.09
2022-08-02T04:33:10.875Z,98760.31
2022-08-02T04:35:37.019Z,98762.19
2022-08-02T04:38:09.080Z,98767.28
2022-08-02T04:40:36.566Z,98769.59
2022-08-02T04:43:02.695Z,98762.34
2022-08-02T04:45:28.834Z,98768.56
2022-08-02T04:48:04.588Z,98766.97
2022-08-02T04:50:31.361Z,98766.66
2022-08-02T04:52:57.491Z,98771.81
2022-08-02T04:55:23.614Z,98781.47
2022-08-02T04:57:52.441Z,98782.19
2022-08-02T05:00:19.660Z,98772.00
2022-08-02T05:02:45.826Z,98773.03
2022-08-02T05:05:11.975Z,98774.72
2022-08-02T05:07:38.100Z,98775.75
2022-08-02T05:10:04.221Z,98771.47
2022-08-02T05:12:30.422Z,98770.66
2022-08-02T05:14:56.537Z,98769.00
2022-08-02T05:17:22.660Z,98765.97
2022-08-02T05:19:48.814Z,98771.38
2022-08-02T05:22:14.962Z,98771.97
2022-08-02T05:24:41.110Z,98759.81
2022-08-02T05:27:16.932Z,98783.28
2022-08-02T05:29:53.718Z,98777.31
2022-08-02T05:32:20.323Z,98775.09
2022-08-02T05:34:49.810Z,98770.72
2022-08-02T05:37:15.940Z,98771.47
2022-08-02T05:39:55.524Z,98778.53
2022-08-02T05:42:22.249Z,98775.59
2022-08-02T05:44:48.421Z,98778.97
2022-08-02T05:47:14.559Z,98770.16
2022-08-02T05:49:40.758Z,98770.41
2022-08-02T05:52:07.221Z,98770.13
2022-08-02T05:54:33.361Z,98781.25
2022-08-02T05:56:59.506Z,98785.31
2022-08-02T05:59:25.648Z,98787.34
2022-08-02T06:01:51.905Z,98786.72
2022-08-02T06:04:18.145Z,98785.53
2022-08-02T06:06:44.300Z,98788.34
2022-08-02T06:09:10.428Z,98777.28
2022-08-02T06:11:36.594Z,98778.81
2022-08-02T06:14:02.779Z,98772.47
2022-08-02T06:16:31.762Z,98772.34
2022-08-02T06:18:58.833Z,98769.09
2022-08-02T06:22:40.270Z,98770.31
2022-08-02T06:24:11.098Z,98775.69
2022-08-02T06:26:37.241Z,98768.34
2022-08-02T06:29:03.384Z,98769.47
2022-08-02T06:31:29.522Z,98780.41
2022-08-02T06:33:55.679Z,98778.94
2022-08-02T06:36:21.812Z,98777.94
2022-08-02T06:38:50.836Z,98780.47
2022-08-02T06:41:17.468Z,98773.47
2022-08-02T06:43:43.606Z,98771.03
2022-08-02T06:47:10.098Z,98778.91
2022-08-02T06:48:56.000Z,98777.69
2022-08-02T06:51:22.180Z,98774.00
2022-08-02T06:53:48.312Z,98781.22
2022-08-02T06:56:14.469Z,98773.19
2022-08-02T06:58:40.588Z,98766.00
2022-08-02T07:01:06.749Z,98760.03
2022-08-02T07:03:32.927Z,98762.06
2022-08-02T07:05:59.051Z,98763.50
2022-08-02T07:08:25.183Z,98767.00
2022-08-02T07:10:51.339Z,98764.31
2022-08-02T07:13:17.539Z,98767.41
2022-08-02T07:15:49.062Z,98760.81
2022-08-02T07:18:15.621Z,98770.25
2022-08-02T07:20:41.748Z,98774.41
2022-08-02T07:23:07.977Z,98770.22
2022-08-02T07:26:01.705Z,98769.78
2022-08-02T07:28:24.373Z,98770.59
2022-08-02T07:30:51.018Z,98765.41
2022-08-02T07:33:37.439Z,98761.25
2022-08-02T07:36:04.747Z,98769.00
2022-08-02T07:38:31.632Z,98759.25
2022-08-02T07:40:57.968Z,98769.38
2022-08-02T07:43:24.446Z,98765.41
2022-08-02T07:45:55.660Z,98776.50
2022-08-02T07:48:26.622Z,98769.16
2022-08-02T07:50:52.758Z,98771.34
2022-08-02T07:53:18.908Z,98772.13
2022-08-02T07:55:45.049Z,98765.44
2022-08-02T07:58:12.480Z,98766.97
2022-08-02T08:00:39.735Z,98767.78
2022-08-02T08:03:05.895Z,98760.47
2022-08-02T08:05:32.035Z,98764.44
2022-08-02T08:07:58.159Z,98776.34
2022-08-02T08:10:24.305Z,98769.63
2022-08-02T08:12:50.430Z,98765.56
2022-08-02T08:15:16.566Z,98758.84
2022-08-02T08:17:42.717Z,98755.13
2022-08-02T08:20:11.766Z,98760.03
2022-08-02T08:22:40.246Z,98757.63
2022-08-02T08:25:06.388Z,98762.56
2022-08-02T08:27:33.208Z,98754.41
2022-08-02T08:29:59.344Z,98759.03
2022-08-02T08:32:25.881Z,98758.81
2022-08-02T08:34:52.156Z,98764.47
2022-08-02T08:37:18.811Z,98757.78
2022-08-02T08:39:56.530Z,98754.53
2022-08-02T08:42:23.793Z,98755.03
2022-08-02T08:44:50.282Z,98755.28
2022-08-02T08:47:16.427Z,98758.22
2022-08-02T08:49:52.242Z,98748.41
2022-08-02T08:52:19.063Z,98752.03
2022-08-02T08:54:45.201Z,98747.72
2022-08-02T08:57:14.798Z,98753.94
2022-08-02T08:59:42.417Z,98747.72
2022-08-02T09:02:19.591Z,98732.47
2022-08-02T09:04:55.138Z,98734.47
2022-08-02T09:07:21.572Z,98747.56
2022-08-02T09:09:47.711Z,98743.25
2022-08-02T09:12:14.321Z,98745.34
2022-08-02T09:14:40.790Z,98742.66
2022-08-02T09:17:06.970Z,98744.97
2022-08-02T09:19:33.147Z,98743.78
2022-08-02T09:21:59.303Z,98736.47
2022-08-02T09:24:25.445Z,98740.78
2022-08-02T09:26:57.938Z,98739.13
2022-08-02T09:29:24.224Z,98733.97
2022-08-02T09:31:50.390Z,98738.56
2022-08-02T09:34:16.552Z,98733.00
2022-08-02T09:36:46.235Z,98745.31
2022-08-02T09:39:12.396Z,98738.44
2022-08-02T09:41:38.558Z,98743.53
2022-08-02T09:44:06.548Z,98739.19
2022-08-02T09:46:33.191Z,98743.75
2022-08-02T09:49:00.845Z,98731.47
2022-08-02T09:51:27.010Z,98736.97
2022-08-02T09:54:05.976Z,98735.94
2022-08-02T09:56:35.828Z,98737.41
2022-08-02T09:59:02.202Z,98737.47
2022-08-02T10:01:35.570Z,98746.41
2022-08-02T10:04:03.941Z,98733.53
2022-08-02T10:06:30.737Z,98733.88
2022-08-02T10:08:56.870Z,98742.13
2022-08-02T10:11:23.037Z,98735.06
2022-08-02T10:13:49.155Z,98734.88
2022-08-02T10:16:15.310Z,98729.41
2022-08-02T10:18:41.768Z,98736.22
2022-08-02T10:21:07.976Z,98726.53
2022-08-02T10:23:34.785Z,98730.09
2022-08-02T10:26:00.935Z,98742.78
2022-08-02T10:28:27.064Z,98735.34
2022-08-02T10:30:53.203Z,98725.56
2022-08-02T10:33:19.380Z,98725.84
2022-08-02T10:35:45.526Z,98722.81
2022-08-02T10:38:11.663Z,98716.69
2022-08-02T10:40:37.815Z,98721.25
2022-08-02T10:43:03.963Z,98727.81
2022-08-02T10:45:30.107Z,98724.16
2022-08-02T10:47:56.286Z,98721.06
2022-08-02T10:50:22.407Z,98726.91
2022-08-02T10:52:48.542Z,98728.94
2022-08-02T10:55:22.498Z,98731.69
2022-08-02T10:57:50.025Z,98719.63
2022-08-02T11:00:19.351Z,98720.78
2022-08-02T11:02:45.795Z,98721.53
2022-08-02T11:05:11.922Z,98718.31
2022-08-02T11:07:38.059Z,98716.50
2022-08-02T11:10:04.219Z,98708.41
2022-08-02T11:12:30.353Z,98712.22
2022-08-02T11:14:56.482Z,98705.25
2022-08-02T11:17:22.681Z,98717.25
2022-08-02T11:19:48.806Z,98717.53
2022-08-02T11:22:15.640Z,98708.28
2022-08-02T11:24:44.150Z,98708.78
2022-08-02T11:27:10.395Z,98694.50
2022-08-02T11:29:38.332Z,98700.66
2022-08-02T11:32:05.095Z,98706.34
2022-08-02T11:34:37.273Z,98701.63
2022-08-02T11:37:04.027Z,98702.50
2022-08-02T11:39:30.172Z,98704.44
2022-08-02T11:41:56.330Z,98701.13
2022-08-02T11:44:24.010Z,98700.91
2022-08-02T11:46:50.712Z,98703.59
2022-08-02T11:49:16.919Z,98701.44
2022-08-02T11:51:43.118Z,98683.84
2022-08-02T11:54:09.270Z,98690.16
2022-08-02T11:56:36.087Z,98680.94
2022-08-02T11:59:02.230Z,98685.06
2022-08-02T12:01:28.892Z,98690.47
2022-08-02T12:03:55.076Z,98685.38
2022-08-02T12:06:21.243Z,98684.88
2022-08-02T12:08:52.006Z,98677.41
2022-08-02T12:11:21.037Z,98693.59
2022-08-02T12:13:56.831Z,98680.06
2022-08-02T12:16:23.618Z,98688.84
2022-08-02T12:18:55.459Z,98681.25
2022-08-02T12:21:22.318Z,98685.31
2022-08-02T12:23:59.540Z,98683.09
2022-08-02T12:26:27.298Z,98680.16
2022-08-02T12:28:53.452Z,98683.69
2022-08-02T12:31:19.603Z,98690.50
2022-08-02T12:33:45.735Z,98688.88
2022-08-02T12:36:11.901Z,98691.06
2022-08-02T12:38:39.974Z,98689.94
2022-08-02T12:41:06.161Z,98672.19
2022-08-02T12:43:52.302Z,98676.53
2022-08-02T12:46:18.430Z,98681.75
2022-08-02T12:48:56.778Z,98677.16
2022-08-02T12:51:50.772Z,98667.94
2022-08-02T12:54:17.887Z,98671.47
2022-08-02T12:56:44.560Z,98671.75
2022-08-02T12:59:10.714Z,98671.75
2022-08-02T13:01:36.868Z,98663.88
2022-08-02T13:04:09.059Z,98664.94
2022-08-02T13:06:43.926Z,98670.38
2022-08-02T13:09:11.154Z,98669.84
2022-08-02T13:11:37.288Z,98653.53
2022-08-02T13:14:03.418Z,98658.13
2022-08-02T13:16:30.663Z,98665.47
2022-08-02T13:18:57.721Z,98660.53
2022-08-02T13:21:41.554Z,98663.25
2022-08-02T13:24:32.806Z,98659.22
2022-08-02T13:26:56.232Z,98664.94
2022-08-02T13:29:22.390Z,98661.41
2022-08-02T13:31:48.560Z,98660.63
2022-08-02T13:34:14.702Z,98670.69
2022-08-02T13:36:40.865Z,98670.41
2022-08-02T13:39:06.998Z,98667.13
2022-08-02T13:41:33.138Z,98657.31
2022-08-02T13:44:08.937Z,98656.22
2022-08-02T13:46:36.333Z,98649.66
2022-08-02T13:49:02.542Z,98648.81
2022-08-02T13:51:28.714Z,98631.94
2022-08-02T13:53:54.840Z,98636.56
2022-08-02T13:56:20.978Z,98631.09
2022-08-02T13:59:02.118Z,98631.63
2022-08-02T14:01:48.352Z,98624.66
2022-08-02T14:04:14.634Z,98627.84
2022-08-02T14:06:40.779Z,98616.69
2022-08-02T14:09:07.045Z,98624.56
2022-08-02T14:11:33.184Z,98607.34
2022-08-02T14:13:59.325Z,98609.22
2022-08-02T14:16:33.017Z,98613.53
2022-08-02T14:18:59.468Z,98621.78
2022-08-02T14:21:25.597Z,98614.59
2022-08-02T14:23:51.771Z,98608.50
2022-08-02T14:26:27.049Z,98604.88
2022-08-02T14:28:54.114Z,98619.88
2022-08-02T14:31:20.244Z,98608.72
2022-08-02T14:33:46.390Z,98611.22
2022-08-02T14:36:12.545Z,98609.72
2022-08-02T14:38:38.681Z,98606.84
2022-08-02T14:41:04.825Z,98600.78
2022-08-02T14:43:30.966Z,98590.59
2022-08-02T14:45:57.147Z,98606.06
2022-08-02T14:48:23.285Z,98606.88
2022-08-02T14:50:49.493Z,98597.06
2022-08-02T14:53:15.638Z,98584.81
2022-08-02T14:55:41.787Z,98587.88
2022-08-02T14:58:08.626Z,98590.25
2022-08-02T15:00:40.107Z,98589.09
2022-08-02T15:03:06.928Z,98586.66
2022-08-02T15:05:35.634Z,98575.97
2022-08-02T15:08:01.758Z,98582.78
2022-08-02T15:10:27.915Z,98578.50
2022-08-02T15:12:54.092Z,98581.97
2022-08-02T15:15:20.232Z,98572.06
2022-08-02T15:17:46.373Z,98577.47
2022-08-02T15:20:25.531Z,98571.19
2022-08-02T15:22:52.237Z,98568.69
2022-08-02T15:25:18.410Z,98568.31
2022-08-02T15:27:44.589Z,98556.91
2022-08-02T15:30:10.721Z,98570.41
2022-08-02T15:32:36.876Z,98577.16
2022-08-02T15:35:03.015Z,98566.53
2022-08-02T15:37:31.110Z,98561.81
2022-08-02T15:39:57.385Z,98568.78
2022-08-02T15:42:30.519Z,98549.47
2022-08-02T15:44:56.991Z,98568.63
2022-08-02T15:47:23.154Z,98547.09
2022-08-02T15:49:49.354Z,98565.69
2022-08-02T15:52:16.153Z,98564.97
2022-08-02T15:54:42.626Z,98555.59
2022-08-02T15:57:08.744Z,98555.88
2022-08-02T15:59:34.878Z,98560.28
2022-08-02T16:02:01.669Z,98550.06
2022-08-02T16:04:27.876Z,98546.84
2022-08-02T16:06:54.010Z,98546.38
2022-08-02T16:09:20.174Z,98543.72
2022-08-02T16:11:46.296Z,98548.53
2022-08-02T16:14:12.430Z,98548.38
2022-08-02T16:16:38.577Z,98552.50
2022-08-02T16:19:47.462Z,98560.34
2022-08-02T16:21:51.265Z,98554.66
2022-08-02T16:24:17.412Z,98543.47
2022-08-02T16:26:43.543Z,98543.91
2022-08-02T16:29:09.689Z,98547.56
2022-08-02T16:31:41.559Z,98542.50
2022-08-02T16:34:08.514Z,98545.00
2022-08-02T16:36:34.662Z,98540.25
2022-08-02T16:39:00.791Z,98543.69
2022-08-02T16:41:50.716Z,98534.94
2022-08-02T16:44:13.059Z,98524.72
2022-08-02T16:46:39.195Z,98528.88
2022-08-02T16:49:06.181Z,98520.09
2022-08-02T16:51:52.262Z,98520.25
2022-08-02T16:54:18.720Z,98525.28
2022-08-02T16:56:45.177Z,98529.97
2022-08-02T16:59:12.865Z,98530.13
2022-08-02T17:04:25.356Z,98512.53
2022-08-02T17:06:52.050Z,98520.69
2022-08-02T17:10:01.820Z,98521.25
2022-08-02T17:12:04.486Z,98523.84
2022-08-02T17:14:31.120Z,98519.50
2022-08-02T17:16:57.273Z,98514.94
2022-08-02T17:19:23.975Z,98519.47
2022-08-02T17:21:50.105Z,98516.09
2022-08-02T17:24:16.386Z,98509.13
2022-08-02T17:26:45.915Z,98509.59
2022-08-02T17:29:16.425Z,98504.13
2022-08-02T17:31:46.554Z,98514.91
2022-08-02T17:34:29.080Z,98513.94
2022-08-02T17:36:56.813Z,98512.41
2022-08-02T17:39:22.944Z,98515.78
2022-08-02T17:41:50.609Z,98507.69
2022-08-02T17:44:16.807Z,98505.75
2022-08-02T17:47:02.936Z,98501.59
2022-08-02T17:49:29.173Z,98501.34
2022-08-02T17:52:48.176Z,98506.25
2022-08-02T17:54:42.158Z,98508.31
2022-08-02T17:57:09.883Z,98511.22
2022-08-02T17:59:41.901Z,98508.47
2022-08-02T18:02:08.466Z,98495.38
2022-08-02T18:04:34.605Z,98498.63
2022-08-02T18:07:03.897Z,98493.91
2022-08-02T18:09:31.026Z,98492.59
2022-08-02T18:11:57.840Z,98491.72
2022-08-02T18:17:10.128Z,98494.56
2022-08-02T18:19:49.312Z,98480.94
2022-08-02T18:22:24.923Z,98493.66
2022-08-02T18:24:52.599Z,98486.78
2022-08-02T18:27:18.717Z,98486.94
2022-08-02T18:29:46.677Z,98489.75
2022-08-02T18:32:13.701Z,98488.94
2022-08-02T18:34:39.965Z,98487.50
2022-08-02T18:37:06.182Z,98490.75
2022-08-02T18:39:33.106Z,98487.50
2022-08-02T18:41:59.277Z,98488.13
2022-08-02T18:44:28.197Z,98488.53
2022-08-02T18:46:54.334Z,98494.03
2022-08-02T18:49:20.662Z,98497.09
2022-08-02T18:51:46.914Z,98504.59
2022-08-02T18:54:13.057Z,98492.63
2022-08-02T18:56:39.760Z,98496.06
2022-08-02T18:59:05.954Z,98496.56
2022-08-02T19:01:35.114Z,98496.03
2022-08-02T19:04:05.737Z,98492.50
2022-08-02T19:06:35.212Z,98493.53
2022-08-02T19:09:12.608Z,98498.19
2022-08-02T19:11:40.807Z,98495.13
2022-08-02T19:14:07.365Z,98501.06
2022-08-02T19:16:36.964Z,98494.69
2022-08-02T19:19:19.633Z,98500.59
2022-08-02T19:22:15.999Z,98506.75
2022-08-02T19:24:31.872Z,98505.31
2022-08-02T19:27:04.776Z,98501.63
2022-08-02T19:29:43.193Z,98510.66
2022-08-02T19:32:42.068Z,98505.00
2022-08-02T19:35:01.538Z,98516.78
2022-08-02T19:37:31.532Z,98512.03
2022-08-02T19:40:04.704Z,98521.44
2022-08-02T19:42:32.720Z,98510.34
2022-08-02T19:45:18.834Z,98524.91
2022-08-02T19:48:04.965Z,98530.88
2022-08-02T19:50:31.109Z,98532.22
2022-08-02T19:52:57.245Z,98524.91
2022-08-02T19:55:59.489Z,98531.47
2022-08-02T19:58:09.499Z,98532.81
2022-08-02T20:00:35.728Z,98534.97
2022-08-02T20:03:01.927Z,98539.84
2022-08-02T20:05:28.249Z,98541.50
2022-08-02T20:07:56.495Z,98539.56
2022-08-02T20:10:24.637Z,98538.75
2022-08-02T20:12:51.659Z,98536.53
2022-08-02T20:15:17.808Z,98539.81
2022-08-02T20:17:47.542Z,98533.25
2022-08-02T20:20:15.199Z,98530.50
2022-08-02T20:22:41.346Z,98538.34
2022-08-02T20:25:09.843Z,98529.34
2022-08-02T20:27:51.113Z,98535.03
2022-08-02T20:30:17.645Z,98541.19
2022-08-02T20:32:43.793Z,98543.88
2022-08-02T20:35:18.917Z,98536.00
2022-08-02T20:38:00.971Z,98535.66
2022-08-02T20:40:28.502Z,98534.53
2022-08-02T20:42:54.647Z,98534.75
2022-08-02T20:45:20.811Z,98540.88
2022-08-02T20:47:50.791Z,98541.31
2022-08-02T20:50:17.446Z,98537.41
2022-08-02T20:52:44.098Z,98546.50
2022-08-02T20:55:16.898Z,98543.16
2022-08-02T20:58:00.613Z,98535.19
2022-08-02T21:00:27.405Z,98540.41
2022-08-02T21:02:53.549Z,98534.09
2022-08-02T21:05:19.705Z,98536.16
2022-08-02T21:07:53.560Z,98529.38
2022-08-02T21:10:21.145Z,98534.22
2022-08-02T21:12:50.286Z,98531.84
2022-08-02T21:15:16.444Z,98530.22
2022-08-02T21:17:50.355Z,98525.81
2022-08-02T21:20:27.425Z,98526.84
2022-08-02T21:22:55.415Z,98526.28
2022-08-02T21:25:21.540Z,98520.91
2022-08-02T21:27:53.339Z,98531.75
2022-08-02T21:30:20.116Z,98531.34
2022-08-02T21:32:50.556Z,98532.34
2022-08-02T21:35:17.657Z,98529.16
2022-08-02T21:37:45.077Z,98532.66
2022-08-02T21:40:11.386Z,98529.50
2022-08-02T21:42:37.513Z,98535.13
2022-08-02T21:45:12.068Z,98541.69
2022-08-02T21:47:43.730Z,98526.91
2022-08-02T21:50:13.139Z,98537.84
2022-08-02T21:52:42.390Z,98535.34
2022-08-02T21:55:21.263Z,98543.84
2022-08-02T21:57:50.596Z,98540.81
2022-08-02T22:00:16.738Z,98546.38
2022-08-02T22:02:54.834Z,98548.44
2022-08-02T22:05:20.975Z,98543.53
2022-08-02T22:07:47.143Z,98544.19
2022-08-02T22:10:17.211Z,98549.25
2022-08-02T22:12:43.358Z,98546.97
2022-08-02T22:15:11.141Z,98551.56
2022-08-02T22:17:50.713Z,98547.63
2022-08-02T22:20:21.268Z,98550.16
2022-08-02T22:22:48.172Z,98547.94
2022-08-02T22:25:27.212Z,98553.25
2022-08-02T22:28:37.775Z,98552.81
2022-08-02T22:30:52.964Z,98548.78
2022-08-02T22:33:19.321Z,98560.19
2022-08-02T22:35:45.451Z,98561.84
2022-08-02T22:38:17.310Z,98549.28
2022-08-02T22:40:44.676Z,98553.94
2022-08-02T22:43:10.809Z,98556.03
2022-08-02T22:45:37.758Z,98564.38
2022-08-02T22:48:04.334Z,98558.03
2022-08-02T22:50:30.536Z,98558.19
2022-08-02T22:52:56.711Z,98555.53
2022-08-02T22:55:23.776Z,98551.16
2022-08-02T22:57:56.438Z,98551.78
2022-08-02T22:58:36.281Z,98515.72
2022-08-02T22:58:57.040Z,98489.53
2022-08-02T23:00:23.306Z,98549.69
2022-08-02T23:02:49.480Z,98554.69
2022-08-02T23:05:15.619Z,98552.34
2022-08-02T23:07:41.751Z,98550.16
2022-08-02T23:10:07.924Z,98547.91
2022-08-02T23:12:34.075Z,98552.19
2022-08-02T23:15:00.218Z,98546.91
2022-08-02T23:17:26.404Z,98552.91
2022-08-02T23:19:52.612Z,98550.31
2022-08-02T23:22:18.797Z,98545.50
2022-08-02T23:24:46.114Z,98548.31
2022-08-02T23:27:12.248Z,98547.88
2022-08-02T23:29:38.372Z,98545.19
2022-08-02T23:32:04.544Z,98544.59
2022-08-02T23:34:32.595Z,98543.41
2022-08-02T23:36:58.725Z,98544.13
2022-08-02T23:39:24.887Z,98555.84
2022-08-02T23:41:55.126Z,98547.19
2022-08-02T23:44:21.587Z,98544.38
2022-08-02T23:46:47.763Z,98553.97
2022-08-02T23:49:13.965Z,98554.44
2022-08-02T23:51:40.164Z,98552.56
2022-08-02T23:54:06.325Z,98549.16
2022-08-02T23:56:32.465Z,98547.53
2022-08-02T23:58:58.610Z,98547.16
